AFR6743 RJAA-LFPG
Flight info
| Callsign | AFR6743 |
|---|---|
| Flight time | N/A |
| Altitude | 33000 |
| Route | GULBO Y808 PUTER A590 PASRO/N0484F340 A590 POWAL/N0490F330 DCT HEDMI DCT NATES DCT ROCET/N0479F350 DCT IDROD DCT CIVED DCT BRW DCT AGMIF DCT 78N130W 79N120W/N0486F370 80N100W 80N090W DCT DEXUN/M083F370 DCT 77N060W 73N040W 70N030W 6630N02000W/M083F390 DCT RATSU/N0483F390 DCT BARKU DCT ORSUM DCT GOW DCT AKOMU DCT VAMEB UL612 MID/N0469F290 Y803 SFD UM605 BIBAX |
| Aircraft | B77L/H-SDE1E2E3FGHIJ2J3J4J5M1RWXY/LB1D1 |
Departure
| Time | 2026-05-06 16:15 |
|---|---|
| Airport | Narita International Airport (RJAA) |
Arrival
| Time | N/A |
|---|---|
| Airport | Charles de Gaulle International Airport (LFPG) |
| Time | Latitude | Longitude | Altitude | Speed | Heading |
|---|---|---|---|---|---|
| 2026-05-06 16:01 | 35.76983 | 140.37676 | 150 ft | 0 kts | 58° |
| 2026-05-06 16:07 | 35.76982 | 140.37675 | 150 ft | 1 kts | 58° |
| 2026-05-06 16:08 | 35.76968 | 140.37651 | 150 ft | 4 kts | 46° |
| 2026-05-06 16:08 | 35.76948 | 140.37629 | 150 ft | 4 kts | 30° |
| 2026-05-06 16:08 | 35.76923 | 140.37616 | 150 ft | 4 kts | 11° |
| 2026-05-06 16:08 | 35.76897 | 140.37614 | 149 ft | 4 kts | 349° |
| 2026-05-06 16:09 | 35.76879 | 140.37621 | 149 ft | 0 kts | 330° |
| 2026-05-06 16:11 | 35.76912 | 140.37598 | 149 ft | 10 kts | 329° |
| 2026-05-06 16:11 | 35.76970 | 140.37555 | 149 ft | 10 kts | 328° |
| 2026-05-06 16:11 | 35.77028 | 140.37510 | 149 ft | 10 kts | 325° |
| 2026-05-06 16:12 | 35.77060 | 140.37440 | 149 ft | 10 kts | 270° |
| 2026-05-06 16:12 | 35.77074 | 140.37360 | 148 ft | 10 kts | 310° |
| 2026-05-06 16:12 | 35.77134 | 140.37309 | 147 ft | 13 kts | 329° |
| 2026-05-06 16:12 | 35.77230 | 140.37237 | 147 ft | 16 kts | 329° |
| 2026-05-06 16:13 | 35.77328 | 140.37164 | 147 ft | 16 kts | 329° |
| 2026-05-06 16:13 | 35.77427 | 140.37093 | 147 ft | 16 kts | 329° |
| 2026-05-06 16:13 | 35.77492 | 140.37005 | 146 ft | 14 kts | 276° |
| 2026-05-06 16:13 | 35.77447 | 140.36898 | 141 ft | 13 kts | 224° |
| 2026-05-06 16:14 | 35.77362 | 140.36890 | 139 ft | 13 kts | 154° |
| 2026-05-06 16:14 | 35.77268 | 140.36957 | 138 ft | 25 kts | 150° |
| 2026-05-06 16:14 | 35.76974 | 140.37171 | 140 ft | 83 kts | 149° |
| 2026-05-06 16:14 | 35.76275 | 140.37676 | 142 ft | 148 kts | 149° |
| 2026-05-06 16:15 | 35.75239 | 140.38431 | 229 ft | 190 kts | 149° |
| 2026-05-06 16:15 | 35.74097 | 140.39251 | 810 ft | 191 kts | 150° |
| 2026-05-06 16:15 | 35.72949 | 140.40081 | 1437 ft | 192 kts | 152° |
| 2026-05-06 16:15 | 35.71793 | 140.40912 | 2014 ft | 195 kts | 153° |
| 2026-05-06 16:16 | 35.70540 | 140.41796 | 2173 ft | 218 kts | 153° |
| 2026-05-06 16:16 | 35.69152 | 140.42785 | 2361 ft | 242 kts | 153° |
| 2026-05-06 16:16 | 35.67657 | 140.43858 | 2835 ft | 254 kts | 153° |
| 2026-05-06 16:16 | 35.66114 | 140.44972 | 3488 ft | 260 kts | 153° |
| 2026-05-06 16:17 | 35.64541 | 140.46110 | 4219 ft | 263 kts | 153° |
| 2026-05-06 16:17 | 35.62958 | 140.47254 | 4986 ft | 264 kts | 153° |
| 2026-05-06 16:17 | 35.61358 | 140.48410 | 5654 ft | 269 kts | 154° |
| 2026-05-06 16:17 | 35.59752 | 140.49570 | 6301 ft | 273 kts | 155° |
| 2026-05-06 16:18 | 35.58085 | 140.50773 | 6981 ft | 275 kts | 155° |
| 2026-05-06 16:18 | 35.56449 | 140.51951 | 7643 ft | 277 kts | 154° |
| 2026-05-06 16:18 | 35.54783 | 140.53147 | 8317 ft | 278 kts | 154° |
| 2026-05-06 16:18 | 35.53102 | 140.54353 | 8937 ft | 282 kts | 155° |
| 2026-05-06 16:19 | 35.51393 | 140.55579 | 9548 ft | 286 kts | 155° |
| 2026-05-06 16:19 | 35.49665 | 140.56818 | 10157 ft | 290 kts | 155° |
| 2026-05-06 16:19 | 35.47881 | 140.58094 | 10435 ft | 307 kts | 155° |
| 2026-05-06 16:19 | 35.45969 | 140.59457 | 10598 ft | 328 kts | 154° |
| 2026-05-06 16:20 | 35.43934 | 140.60915 | 10759 ft | 348 kts | 153° |
| 2026-05-06 16:20 | 35.42028 | 140.62878 | 10837 ft | 372 kts | 131° |
| 2026-05-06 16:20 | 35.40553 | 140.65569 | 11142 ft | 387 kts | 126° |
| 2026-05-06 16:20 | 35.39075 | 140.68365 | 11693 ft | 395 kts | 127° |
| 2026-05-06 16:21 | 35.37549 | 140.71190 | 12391 ft | 400 kts | 127° |
| 2026-05-06 16:21 | 35.35990 | 140.74036 | 13127 ft | 404 kts | 127° |
| 2026-05-06 16:21 | 35.34403 | 140.76906 | 13841 ft | 409 kts | 128° |
| 2026-05-06 16:21 | 35.32789 | 140.79808 | 14424 ft | 415 kts | 128° |
| 2026-05-06 16:22 | 35.31164 | 140.82720 | 14970 ft | 422 kts | 128° |
| 2026-05-06 16:22 | 35.29491 | 140.85715 | 15517 ft | 429 kts | 129° |
| 2026-05-06 16:22 | 35.27796 | 140.88751 | 16119 ft | 435 kts | 129° |
| 2026-05-06 16:22 | 35.26078 | 140.91826 | 16696 ft | 440 kts | 129° |
| 2026-05-06 16:23 | 35.24342 | 140.94928 | 17307 ft | 444 kts | 130° |
| 2026-05-06 16:23 | 35.22649 | 140.98111 | 17816 ft | 449 kts | 122° |
| 2026-05-06 16:23 | 35.21670 | 141.01817 | 18151 ft | 470 kts | 99° |
| 2026-05-06 16:23 | 35.21734 | 141.05847 | 18621 ft | 480 kts | 81° |
| 2026-05-06 16:24 | 35.22742 | 141.09745 | 19088 ft | 481 kts | 67° |
| 2026-05-06 16:24 | 35.24052 | 141.13538 | 19431 ft | 489 kts | 67° |
| 2026-05-06 16:24 | 35.25383 | 141.17391 | 19857 ft | 494 kts | 67° |
| 2026-05-06 16:24 | 35.26692 | 141.21241 | 20366 ft | 497 kts | 68° |
| 2026-05-06 16:25 | 35.28002 | 141.25164 | 20874 ft | 500 kts | 69° |
| 2026-05-06 16:25 | 35.29304 | 141.29126 | 21343 ft | 504 kts | 69° |
| 2026-05-06 16:25 | 35.30608 | 141.33126 | 21777 ft | 508 kts | 69° |
| 2026-05-06 16:25 | 35.31924 | 141.37174 | 22197 ft | 514 kts | 69° |
| 2026-05-06 16:26 | 35.33253 | 141.41259 | 22581 ft | 519 kts | 69° |
| 2026-05-06 16:26 | 35.34593 | 141.45381 | 23012 ft | 523 kts | 69° |
| 2026-05-06 16:26 | 35.35938 | 141.49540 | 23430 ft | 527 kts | 70° |
| 2026-05-06 16:26 | 35.37287 | 141.53732 | 23830 ft | 530 kts | 70° |
| 2026-05-06 16:27 | 35.38646 | 141.57945 | 24201 ft | 532 kts | 69° |
| 2026-05-06 16:27 | 35.40004 | 141.62174 | 24623 ft | 534 kts | 69° |
| 2026-05-06 16:27 | 35.41363 | 141.66429 | 25001 ft | 537 kts | 69° |
| 2026-05-06 16:27 | 35.42727 | 141.70697 | 25363 ft | 540 kts | 69° |
| 2026-05-06 16:28 | 35.44004 | 141.75035 | 25685 ft | 541 kts | 76° |
| 2026-05-06 16:28 | 35.44535 | 141.79583 | 25960 ft | 537 kts | 93° |
| 2026-05-06 16:28 | 35.44445 | 141.84171 | 26219 ft | 540 kts | 96° |
| 2026-05-06 16:28 | 35.44287 | 141.88796 | 26469 ft | 546 kts | 96° |
| 2026-05-06 16:29 | 35.44146 | 141.93463 | 26842 ft | 548 kts | 95° |
| 2026-05-06 16:29 | 35.44046 | 141.98139 | 27267 ft | 550 kts | 95° |
| 2026-05-06 16:29 | 35.43984 | 142.02778 | 27665 ft | 552 kts | 94° |
| 2026-05-06 16:29 | 35.43944 | 142.07499 | 28014 ft | 555 kts | 94° |
| 2026-05-06 16:30 | 35.43914 | 142.12249 | 28367 ft | 558 kts | 94° |
| 2026-05-06 16:30 | 35.43893 | 142.15475 | 28579 ft | 560 kts | 94° |
| 2026-05-06 16:30 | 35.43846 | 142.21817 | 29025 ft | 563 kts | 94° |
| 2026-05-06 16:30 | 35.43803 | 142.26632 | 29364 ft | 565 kts | 94° |
| 2026-05-06 16:31 | 35.43757 | 142.31422 | 30059 ft | 559 kts | 94° |
| 2026-05-06 16:31 | 35.43708 | 142.36179 | 30551 ft | 557 kts | 94° |
| 2026-05-06 16:31 | 35.43655 | 142.40935 | 30904 ft | 558 kts | 94° |
| 2026-05-06 16:31 | 35.43601 | 142.45696 | 31216 ft | 559 kts | 94° |
| 2026-05-06 16:32 | 35.43546 | 142.50463 | 31566 ft | 559 kts | 94° |
| 2026-05-06 16:32 | 35.43489 | 142.55227 | 31907 ft | 559 kts | 94° |
| 2026-05-06 16:32 | 35.43430 | 142.60002 | 32076 ft | 563 kts | 94° |
| 2026-05-06 16:32 | 35.43368 | 142.64814 | 32121 ft | 564 kts | 94° |
| 2026-05-06 16:33 | 35.43242 | 142.74403 | 32116 ft | 559 kts | 94° |
| 2026-05-06 16:34 | 35.43042 | 142.88671 | 32135 ft | 556 kts | 94° |
| 2026-05-06 16:34 | 35.42898 | 142.98093 | 32163 ft | 558 kts | 94° |
| 2026-05-06 16:34 | 35.42822 | 143.02853 | 32372 ft | 560 kts | 94° |
| 2026-05-06 16:35 | 35.42745 | 143.07619 | 32772 ft | 558 kts | 94° |
| 2026-05-06 16:35 | 35.42668 | 143.12366 | 33088 ft | 557 kts | 94° |
| 2026-05-06 16:35 | 35.42588 | 143.17138 | 33117 ft | 559 kts | 94° |
| 2026-05-06 16:36 | 35.42812 | 143.26622 | 33135 ft | 559 kts | 77° |
| 2026-05-06 16:36 | 35.44123 | 143.31096 | 33152 ft | 558 kts | 59° |
| 2026-05-06 16:36 | 35.46282 | 143.35031 | 33154 ft | 554 kts | 46° |
| 2026-05-06 16:36 | 35.49015 | 143.38328 | 33141 ft | 548 kts | 32° |
| 2026-05-06 16:37 | 35.52191 | 143.40801 | 33159 ft | 538 kts | 23° |
| 2026-05-06 16:37 | 35.58776 | 143.45249 | 33156 ft | 542 kts | 23° |
| 2026-05-06 16:38 | 35.65354 | 143.49854 | 33151 ft | 546 kts | 24° |
| 2026-05-06 16:38 | 35.71923 | 143.54610 | 33157 ft | 548 kts | 24° |
| 2026-05-06 16:39 | 35.78452 | 143.59342 | 33142 ft | 547 kts | 24° |
| 2026-05-06 16:39 | 35.85006 | 143.64096 | 33138 ft | 546 kts | 24° |
| 2026-05-06 16:40 | 35.91535 | 143.68858 | 33140 ft | 544 kts | 24° |
| 2026-05-06 16:40 | 35.98043 | 143.73616 | 33162 ft | 543 kts | 23° |
| 2026-05-06 16:41 | 36.03463 | 143.77578 | 33158 ft | 548 kts | 22° |
| 2026-05-06 16:41 | 36.10072 | 143.82416 | 33154 ft | 554 kts | 23° |
| 2026-05-06 16:42 | 36.16704 | 143.87295 | 33141 ft | 554 kts | 23° |
| 2026-05-06 16:42 | 36.23328 | 143.92172 | 33157 ft | 554 kts | 23° |
| 2026-05-06 16:43 | 36.29964 | 143.97049 | 33141 ft | 554 kts | 22° |
| 2026-05-06 16:43 | 36.36591 | 144.01918 | 33141 ft | 554 kts | 22° |
| 2026-05-06 16:44 | 36.43223 | 144.06803 | 33148 ft | 554 kts | 23° |
| 2026-05-06 16:44 | 36.49821 | 144.11676 | 33141 ft | 554 kts | 23° |
| 2026-05-06 16:45 | 36.56459 | 144.16589 | 33144 ft | 556 kts | 22° |
| 2026-05-06 16:45 | 36.63114 | 144.21525 | 33148 ft | 557 kts | 22° |
| 2026-05-06 16:46 | 36.69785 | 144.26484 | 33159 ft | 559 kts | 22° |
| 2026-05-06 16:46 | 36.76462 | 144.31457 | 33145 ft | 560 kts | 22° |
| 2026-05-06 16:47 | 36.83158 | 144.36457 | 33140 ft | 561 kts | 22° |
| 2026-05-06 16:47 | 36.89848 | 144.41487 | 33137 ft | 561 kts | 22° |
| 2026-05-06 16:48 | 36.96483 | 144.46493 | 33140 ft | 561 kts | 22° |
| 2026-05-06 16:48 | 37.03160 | 144.51539 | 33143 ft | 560 kts | 22° |
| 2026-05-06 16:49 | 37.09845 | 144.56596 | 33143 ft | 561 kts | 22° |
| 2026-05-06 16:49 | 37.16524 | 144.61660 | 33142 ft | 560 kts | 22° |
| 2026-05-06 16:50 | 37.23200 | 144.66734 | 33138 ft | 560 kts | 22° |
| 2026-05-06 16:50 | 37.29824 | 144.71778 | 33136 ft | 560 kts | 22° |
| 2026-05-06 16:51 | 37.36487 | 144.76861 | 33151 ft | 561 kts | 23° |
| 2026-05-06 16:51 | 37.43149 | 144.81956 | 33141 ft | 561 kts | 23° |
| 2026-05-06 16:52 | 37.49814 | 144.87063 | 33140 ft | 561 kts | 23° |
| 2026-05-06 16:52 | 37.56487 | 144.92187 | 33139 ft | 561 kts | 23° |
| 2026-05-06 16:53 | 37.63146 | 144.97312 | 33132 ft | 561 kts | 23° |
| 2026-05-06 16:53 | 37.69812 | 145.02453 | 33153 ft | 561 kts | 23° |
| 2026-05-06 16:54 | 37.76431 | 145.07568 | 33136 ft | 561 kts | 23° |
| 2026-05-06 16:54 | 37.83103 | 145.12735 | 33138 ft | 561 kts | 23° |
| 2026-05-06 16:55 | 37.89771 | 145.17909 | 33142 ft | 563 kts | 24° |
| 2026-05-06 16:55 | 37.96458 | 145.23111 | 33141 ft | 565 kts | 24° |
| 2026-05-06 16:56 | 38.03163 | 145.28339 | 33143 ft | 565 kts | 24° |
| 2026-05-06 16:56 | 38.09823 | 145.33543 | 33132 ft | 566 kts | 24° |
| 2026-05-06 16:57 | 38.16534 | 145.38796 | 33136 ft | 567 kts | 24° |
| 2026-05-06 16:57 | 38.23260 | 145.44076 | 33140 ft | 569 kts | 24° |
| 2026-05-06 16:58 | 38.29997 | 145.49376 | 33137 ft | 570 kts | 25° |
| 2026-05-06 16:58 | 38.36443 | 145.55434 | 33130 ft | 582 kts | 37° |
| 2026-05-06 16:59 | 38.42331 | 145.62442 | 33127 ft | 584 kts | 38° |
| 2026-05-06 16:59 | 38.48236 | 145.69566 | 33142 ft | 584 kts | 38° |
| 2026-05-06 17:00 | 38.54178 | 145.76652 | 33139 ft | 585 kts | 38° |
| 2026-05-06 17:00 | 38.60150 | 145.83726 | 33145 ft | 585 kts | 37° |
| 2026-05-06 17:01 | 38.66130 | 145.90814 | 33136 ft | 585 kts | 37° |
| 2026-05-06 17:01 | 38.72097 | 145.97914 | 33161 ft | 586 kts | 37° |
| 2026-05-06 17:02 | 38.78056 | 146.05028 | 33143 ft | 585 kts | 37° |
| 2026-05-06 17:02 | 38.84003 | 146.12147 | 33133 ft | 584 kts | 37° |
| 2026-05-06 17:03 | 38.89934 | 146.19263 | 33128 ft | 583 kts | 37° |
| 2026-05-06 17:03 | 38.95848 | 146.26374 | 33133 ft | 582 kts | 37° |
| 2026-05-06 17:04 | 39.01758 | 146.33496 | 33178 ft | 582 kts | 37° |
| 2026-05-06 17:04 | 39.07619 | 146.40577 | 33138 ft | 581 kts | 37° |
| 2026-05-06 17:05 | 39.13497 | 146.47696 | 33131 ft | 579 kts | 37° |
| 2026-05-06 17:05 | 39.19346 | 146.54797 | 33126 ft | 577 kts | 37° |
| 2026-05-06 17:06 | 39.25177 | 146.61892 | 33135 ft | 576 kts | 37° |
| 2026-05-06 17:06 | 39.31000 | 146.68994 | 33139 ft | 575 kts | 37° |
| 2026-05-06 17:07 | 39.36809 | 146.76097 | 33133 ft | 572 kts | 38° |
| 2026-05-06 17:07 | 39.42495 | 146.83074 | 33123 ft | 562 kts | 38° |
| 2026-05-06 17:08 | 39.48194 | 146.90071 | 33151 ft | 567 kts | 37° |
| 2026-05-06 17:08 | 39.53939 | 146.97136 | 33139 ft | 570 kts | 38° |
| 2026-05-06 17:09 | 39.59687 | 147.04232 | 33137 ft | 570 kts | 38° |
| 2026-05-06 17:09 | 39.65425 | 147.11336 | 33174 ft | 567 kts | 38° |
| 2026-05-06 17:10 | 39.70992 | 147.18258 | 33128 ft | 551 kts | 38° |
| 2026-05-06 17:10 | 39.76536 | 147.25150 | 33140 ft | 551 kts | 38° |
| 2026-05-06 17:11 | 39.82081 | 147.32049 | 33146 ft | 553 kts | 38° |
| 2026-05-06 17:11 | 39.87638 | 147.38985 | 33154 ft | 554 kts | 38° |
| 2026-05-06 17:12 | 39.93214 | 147.45966 | 33140 ft | 556 kts | 38° |
| 2026-05-06 17:12 | 39.98769 | 147.52943 | 33133 ft | 546 kts | 39° |
| 2026-05-06 17:13 | 40.04166 | 147.59746 | 33128 ft | 536 kts | 39° |
| 2026-05-06 17:13 | 40.09546 | 147.66523 | 33134 ft | 539 kts | 38° |
| 2026-05-06 17:14 | 40.14960 | 147.73350 | 33149 ft | 549 kts | 39° |
| 2026-05-06 17:14 | 40.20448 | 147.80302 | 33129 ft | 549 kts | 39° |
| 2026-05-06 17:15 | 40.25923 | 147.87262 | 33133 ft | 548 kts | 39° |
| 2026-05-06 17:15 | 40.31338 | 147.94165 | 33129 ft | 536 kts | 39° |
| 2026-05-06 17:16 | 40.36657 | 148.00954 | 33138 ft | 532 kts | 39° |
| 2026-05-06 17:16 | 40.41968 | 148.07740 | 33137 ft | 533 kts | 39° |
| 2026-05-06 17:17 | 40.47242 | 148.14495 | 33146 ft | 534 kts | 39° |
| 2026-05-06 17:17 | 40.52554 | 148.21319 | 33136 ft | 535 kts | 39° |
| 2026-05-06 17:18 | 40.57882 | 148.28182 | 33136 ft | 536 kts | 40° |
| 2026-05-06 17:18 | 40.63214 | 148.35065 | 33139 ft | 537 kts | 40° |
| 2026-05-06 17:19 | 40.68550 | 148.41970 | 33138 ft | 538 kts | 40° |
| 2026-05-06 17:19 | 40.73886 | 148.48892 | 33136 ft | 538 kts | 40° |
| 2026-05-06 17:20 | 40.79218 | 148.55824 | 33127 ft | 538 kts | 40° |
| 2026-05-06 17:20 | 40.84499 | 148.62707 | 33128 ft | 536 kts | 40° |
| 2026-05-06 17:21 | 40.89798 | 148.69630 | 33165 ft | 535 kts | 40° |
| 2026-05-06 17:21 | 40.95075 | 148.76541 | 33132 ft | 532 kts | 40° |
| 2026-05-06 17:22 | 41.00319 | 148.83426 | 33123 ft | 529 kts | 40° |
| 2026-05-06 17:22 | 41.05531 | 148.90284 | 33118 ft | 527 kts | 40° |
| 2026-05-06 17:23 | 41.10724 | 148.97131 | 33127 ft | 525 kts | 40° |
| 2026-05-06 17:23 | 41.15900 | 149.03980 | 33127 ft | 525 kts | 40° |
| 2026-05-06 17:24 | 41.21075 | 149.10846 | 33164 ft | 526 kts | 41° |
| 2026-05-06 17:24 | 41.26249 | 149.17729 | 33129 ft | 526 kts | 41° |
| 2026-05-06 17:25 | 41.31372 | 149.24562 | 33115 ft | 524 kts | 41° |
| 2026-05-06 17:25 | 41.36503 | 149.31421 | 33128 ft | 522 kts | 41° |
| 2026-05-06 17:26 | 41.41613 | 149.38265 | 33115 ft | 520 kts | 41° |
| 2026-05-06 17:26 | 41.46705 | 149.45103 | 33117 ft | 519 kts | 41° |
| 2026-05-06 17:27 | 41.51779 | 149.51932 | 33121 ft | 518 kts | 41° |
| 2026-05-06 17:27 | 41.56855 | 149.58778 | 33118 ft | 518 kts | 42° |
| 2026-05-06 17:28 | 41.61919 | 149.65627 | 33112 ft | 517 kts | 42° |
| 2026-05-06 17:28 | 41.66975 | 149.72481 | 33121 ft | 517 kts | 42° |
| 2026-05-06 17:29 | 41.72018 | 149.79334 | 33112 ft | 516 kts | 42° |
| 2026-05-06 17:29 | 41.77021 | 149.86149 | 33107 ft | 516 kts | 42° |
| 2026-05-06 17:30 | 41.82055 | 149.93020 | 33109 ft | 516 kts | 42° |
| 2026-05-06 17:30 | 41.87081 | 149.99898 | 33117 ft | 516 kts | 42° |
| 2026-05-06 17:31 | 41.92099 | 150.06781 | 33101 ft | 515 kts | 42° |
| 2026-05-06 17:31 | 41.96258 | 150.12500 | 33104 ft | 514 kts | 42° |
| 2026-05-06 17:32 | 42.02064 | 150.20501 | 33105 ft | 514 kts | 42° |
| 2026-05-06 17:32 | 42.06244 | 150.26275 | 33093 ft | 513 kts | 42° |
| 2026-05-06 17:33 | 42.11224 | 150.33170 | 33095 ft | 513 kts | 42° |
| 2026-05-06 17:33 | 42.16196 | 150.40070 | 33094 ft | 513 kts | 43° |
| 2026-05-06 17:34 | 42.21131 | 150.46935 | 33095 ft | 513 kts | 43° |
| 2026-05-06 17:34 | 42.26093 | 150.53853 | 33092 ft | 513 kts | 43° |
| 2026-05-06 17:35 | 42.31055 | 150.60789 | 33096 ft | 513 kts | 43° |
| 2026-05-06 17:35 | 42.36008 | 150.67730 | 33086 ft | 513 kts | 43° |
| 2026-05-06 17:36 | 42.43429 | 150.78158 | 33082 ft | 512 kts | 43° |
| 2026-05-06 17:36 | 42.48367 | 150.85120 | 33080 ft | 513 kts | 43° |
| 2026-05-06 17:37 | 42.53304 | 150.92096 | 33089 ft | 513 kts | 43° |
| 2026-05-06 17:37 | 42.58239 | 150.99088 | 33074 ft | 513 kts | 43° |
| 2026-05-06 17:38 | 42.63134 | 151.06038 | 33075 ft | 512 kts | 43° |
| 2026-05-06 17:38 | 42.68052 | 151.13039 | 33075 ft | 512 kts | 43° |
| 2026-05-06 17:39 | 42.72966 | 151.20052 | 33071 ft | 512 kts | 43° |
| 2026-05-06 17:39 | 42.77876 | 151.27076 | 33078 ft | 512 kts | 43° |
| 2026-05-06 17:40 | 42.82781 | 151.34109 | 33070 ft | 512 kts | 43° |
| 2026-05-06 17:40 | 42.87688 | 151.41164 | 33070 ft | 512 kts | 43° |
| 2026-05-06 17:41 | 42.92582 | 151.48217 | 33071 ft | 512 kts | 43° |
| 2026-05-06 17:41 | 42.97473 | 151.55282 | 33059 ft | 511 kts | 43° |
| 2026-05-06 17:42 | 43.02350 | 151.62346 | 33060 ft | 511 kts | 43° |
| 2026-05-06 17:42 | 43.07188 | 151.69370 | 33060 ft | 511 kts | 43° |
| 2026-05-06 17:43 | 43.12054 | 151.76452 | 33059 ft | 511 kts | 43° |
| 2026-05-06 17:43 | 43.16913 | 151.83542 | 33072 ft | 511 kts | 43° |
| 2026-05-06 17:44 | 43.21777 | 151.90657 | 33054 ft | 511 kts | 43° |
| 2026-05-06 17:44 | 43.26635 | 151.97781 | 33058 ft | 511 kts | 43° |
| 2026-05-06 17:45 | 43.31486 | 152.04913 | 33048 ft | 511 kts | 43° |
| 2026-05-06 17:45 | 43.36347 | 152.12076 | 33045 ft | 512 kts | 43° |
| 2026-05-06 17:46 | 43.41197 | 152.19243 | 33046 ft | 512 kts | 43° |
| 2026-05-06 17:46 | 43.46045 | 152.26424 | 33043 ft | 512 kts | 43° |
| 2026-05-06 17:47 | 43.50894 | 152.33624 | 33052 ft | 513 kts | 43° |
| 2026-05-06 17:47 | 43.55745 | 152.40846 | 33036 ft | 514 kts | 43° |
| 2026-05-06 17:48 | 43.60573 | 152.48051 | 33030 ft | 515 kts | 43° |
| 2026-05-06 17:48 | 43.65433 | 152.55323 | 33037 ft | 516 kts | 43° |
| 2026-05-06 17:49 | 43.70299 | 152.62624 | 33038 ft | 516 kts | 43° |